Wetterstation Vordersexau
Wetterdaten: Woche 19.02.18 - 25.02.18 (KW8)
Datum Zeit Temp. A. Feuchte A. Luftdruck Regen Wind Richtung Taupunkt Windchill Windben
19.02.2018 00:00 0,3 C 87 % 1019,5 hPa 0,0 l/m 0,0 km/h SO -1,6 C 0,3 C 0,0 km/h
19.02.2018 01:00 0,3 C 87 % 1019,1 hPa 0,0 l/m 0,0 km/h SO -1,6 C 0,3 C 0,0 km/h
19.02.2018 02:00 0,1 C 86 % 1018,4 hPa 0,0 l/m 0,0 km/h O-SO -2,0 C 0,1 C 0,0 km/h
19.02.2018 03:00 0,7 C 87 % 1017,9 hPa 0,0 l/m 0,0 km/h O -1,2 C 0,7 C 0,0 km/h
19.02.2018 04:00 0,9 C 86 % 1017,9 hPa 0,0 l/m 0,0 km/h NO -1,2 C 0,9 C 0,0 km/h
19.02.2018 05:00 0,7 C 86 % 1017,2 hPa 0,0 l/m 0,0 km/h NO -1,4 C 0,7 C 0,0 km/h
19.02.2018 06:00 0,4 C 87 % 1017,3 hPa 0,0 l/m 0,0 km/h NO -1,5 C 0,4 C 0,0 km/h
19.02.2018 07:00 0,4 C 87 % 1017,2 hPa 0,0 l/m 0,0 km/h NO -1,5 C 0,4 C 0,0 km/h
19.02.2018 08:00 0,9 C 86 % 1017,0 hPa 0,0 l/m 0,0 km/h NO -1,2 C 0,9 C 0,0 km/h
19.02.2018 09:00 1,9 C 86 % 1017,0 hPa 0,0 l/m 0,0 km/h NO -0,2 C 1,9 C 0,0 km/h
19.02.2018 10:00 2,9 C 82 % 1016,9 hPa 0,0 l/m 0,0 km/h NO 0,1 C 2,9 C 0,0 km/h
19.02.2018 11:00 3,8 C 77 % 1016,4 hPa 0,0 l/m 0,0 km/h NO 0,1 C 3,8 C 0,0 km/h
19.02.2018 12:00 3,8 C 73 % 1015,9 hPa 0,0 l/m 0,0 km/h N-NW -0,6 C 3,8 C 0,0 km/h
19.02.2018 13:00 3,4 C 72 % 1015,6 hPa 0,0 l/m 0,0 km/h N -1,2 C 3,4 C 0,0 km/h
19.02.2018 14:00 4,0 C 71 % 1015,1 hPa 0,0 l/m 0,0 km/h NO -0,8 C 4,0 C 0,0 km/h
19.02.2018 15:00 3,4 C 71 % 1014,8 hPa 0,0 l/m 0,0 km/h N-NO -1,3 C 3,4 C 0,0 km/h
19.02.2018 16:00 2,9 C 72 % 1014,7 hPa 0,0 l/m 0,0 km/h N -1,6 C 2,9 C 0,0 km/h
19.02.2018 17:00 2,1 C 73 % 1014,4 hPa 0,0 l/m 0,0 km/h N -2,2 C 2,1 C 0,0 km/h
19.02.2018 18:00 1,2 C 78 % 1014,8 hPa 0,0 l/m 0,0 km/h N -2,2 C 1,2 C 0,0 km/h
19.02.2018 19:00 0,9 C 81 % 1014,0 hPa 0,0 l/m 0,0 km/h N -2,0 C 0,9 C 0,0 km/h
19.02.2018 20:00 0,6 C 83 % 1014,1 hPa 0,0 l/m 0,0 km/h N -1,9 C 0,6 C 0,0 km/h
19.02.2018 21:00 0,4 C 84 % 1013,9 hPa 0,0 l/m 0,0 km/h N -2,0 C 0,4 C 0,0 km/h
19.02.2018 22:00 0,2 C 85 % 1013,3 hPa 0,0 l/m 0,0 km/h N -2,0 C 0,2 C 0,0 km/h
19.02.2018 23:00 0,2 C 85 % 1013,3 hPa 0,0 l/m 0,0 km/h N -2,0 C 0,2 C 0,0 km/h
20.02.2018 00:00 0,1 C 86 % 1013,1 hPa 0,0 l/m 0,0 km/h N -2,0 C 0,1 C 0,0 km/h
20.02.2018 01:00 0,3 C 86 % 1012,8 hPa 0,0 l/m 0,0 km/h N -1,8 C 0,3 C 0,0 km/h
20.02.2018 02:00 0,1 C 86 % 1012,5 hPa 0,0 l/m 0,0 km/h N -2,0 C 0,1 C 0,0 km/h
20.02.2018 03:00 0,0 C 86 % 1012,4 hPa 0,0 l/m 0,0 km/h N -2,1 C 0,0 C 0,0 km/h
20.02.2018 04:00 -0,2 C 86 % 1012,5 hPa 0,0 l/m 0,0 km/h N -2,3 C -0,2 C 0,0 km/h
20.02.2018 05:00 -0,4 C 86 % 1012,3 hPa 0,0 l/m 0,0 km/h N -2,4 C -0,4 C 0,0 km/h
20.02.2018 06:00 -0,2 C 86 % 1012,5 hPa 0,0 l/m 0,0 km/h N -2,3 C -0,2 C 0,0 km/h
20.02.2018 07:00 -0,2 C 86 % 1012,5 hPa 0,0 l/m 0,0 km/h N -2,3 C -0,2 C 0,0 km/h
20.02.2018 08:00 0,4 C 86 % 1013,0 hPa 0,0 l/m 0,0 km/h W-SW -1,7 C 0,4 C 0,0 km/h
20.02.2018 09:00 1,3 C 86 % 1012,9 hPa 0,0 l/m 0,0 km/h W -0,8 C 1,3 C 0,0 km/h
20.02.2018 10:00 1,9 C 83 % 1012,8 hPa 0,0 l/m 0,0 km/h W-SW -0,7 C 1,9 C 0,0 km/h
20.02.2018 11:00 1,8 C 80 % 1012,8 hPa 0,0 l/m 0,0 km/h W-SW -1,3 C 1,8 C 0,0 km/h
20.02.2018 12:00 2,5 C 78 % 1012,8 hPa 0,0 l/m 0,0 km/h O-NO -0,9 C 2,5 C 0,0 km/h
20.02.2018 13:00 2,8 C 73 % 1012,6 hPa 0,0 l/m 0,0 km/h N -1,5 C 2,8 C 0,0 km/h
20.02.2018 14:00 1,9 C 72 % 1012,7 hPa 0,0 l/m 16,8 km/h N-NO -2,6 C -5,7 C 9,4 km/h
20.02.2018 15:00 1,9 C 69 % 1012,8 hPa 0,0 l/m 0,0 km/h NO -3,2 C 1,9 C 0,0 km/h
20.02.2018 16:00 1,5 C 70 % 1012,7 hPa 0,0 l/m 0,0 km/h NO -3,4 C 1,5 C 0,0 km/h
20.02.2018 17:00 1,1 C 71 % 1013,2 hPa 0,0 l/m 0,0 km/h NO -3,6 C 1,1 C 0,0 km/h
20.02.2018 18:00 0,9 C 73 % 1013,9 hPa 0,0 l/m 0,0 km/h NO -3,4 C 0,9 C 0,0 km/h
20.02.2018 19:00 0,3 C 76 % 1014,3 hPa 0,0 l/m 0,0 km/h NO -3,4 C 0,3 C 0,0 km/h
20.02.2018 20:00 0,2 C 78 % 1014,2 hPa 0,0 l/m 1,9 km/h NO -3,2 C 0,2 C 1,1 km/h
20.02.2018 21:00 0,5 C 77 % 1014,0 hPa 0,0 l/m 0,0 km/h NO -3,1 C 0,5 C 0,0 km/h
20.02.2018 22:00 0,3 C 76 % 1014,2 hPa 0,0 l/m 0,0 km/h NO -3,4 C 0,3 C 0,0 km/h
20.02.2018 23:00 0,2 C 77 % 1014,1 hPa 0,0 l/m 0,0 km/h N-NO -3,3 C 0,2 C 0,0 km/h
21.02.2018 00:00 0,0 C 76 % 1014,3 hPa 0,0 l/m 0,0 km/h N-NO -3,7 C 0,0 C 0,0 km/h
21.02.2018 01:00 -1,1 C 78 % 1014,7 hPa 0,0 l/m 0,0 km/h N-NO -4,4 C -1,1 C 0,0 km/h
21.02.2018 02:00 0,0 C 76 % 1014,7 hPa 0,0 l/m 0,0 km/h N -3,7 C 0,0 C 0,0 km/h
21.02.2018 03:00 -0,1 C 77 % 1014,7 hPa 0,0 l/m 0,0 km/h N-NO -3,6 C -0,1 C 0,0 km/h
21.02.2018 04:00 -0,1 C 77 % 1015,2 hPa 0,0 l/m 0,0 km/h N -3,6 C -0,1 C 0,0 km/h
21.02.2018 05:00 -0,4 C 76 % 1015,5 hPa 0,0 l/m 0,0 km/h N-NO -4,1 C -0,4 C 0,0 km/h
21.02.2018 06:00 -1,1 C 78 % 1015,6 hPa 0,0 l/m 20,7 km/h N-NO -4,4 C -11,4 C 11,5 km/h
21.02.2018 07:00 -0,9 C 77 % 1015,6 hPa 0,0 l/m 1,9 km/h N -4,4 C -0,9 C 1,1 km/h
21.02.2018 08:00 0,4 C 76 % 1015,5 hPa 0,0 l/m 10,4 km/h N -3,3 C -3,3 C 5,8 km/h
21.02.2018 09:00 2,9 C 68 % 1015,5 hPa 0,0 l/m 8,4 km/h N-NO -2,4 C 1,0 C 4,7 km/h
21.02.2018 10:00 5,3 C 59 % 1015,6 hPa 0,0 l/m 16,8 km/h N-NW -2,0 C -1,4 C 9,4 km/h
21.02.2018 11:00 5,5 C 58 % 1015,7 hPa 0,0 l/m 24,6 km/h O-NO -2,1 C -4,1 C 13,7 km/h
21.02.2018 12:00 6,6 C 55 % 1015,5 hPa 0,0 l/m 25,9 km/h N-NO -1,8 C -3,0 C 14,4 km/h
21.02.2018 13:00 6,1 C 55 % 1015,2 hPa 0,0 l/m 8,4 km/h N -2,2 C 4,4 C 4,7 km/h
21.02.2018 14:00 8,3 C 47 % 1014,5 hPa 0,0 l/m 18,8 km/h N-NO -2,3 C 1,5 C 10,4 km/h
21.02.2018 15:00 8,4 C 47 % 1014,1 hPa 0,0 l/m 7,1 km/h N-NO -2,2 C 7,9 C 4,0 km/h
21.02.2018 16:00 5,5 C 52 % 1014,4 hPa 0,0 l/m 14,9 km/h NO -3,6 C -0,3 C 8,3 km/h
21.02.2018 17:00 1,7 C 62 % 1014,8 hPa 0,0 l/m 0,0 km/h N-NO -4,8 C 1,7 C 0,0 km/h
21.02.2018 18:00 0,4 C 69 % 1015,0 hPa 0,0 l/m 1,9 km/h N-NO -4,6 C 0,4 C 1,1 km/h
21.02.2018 19:00 0,6 C 72 % 1015,0 hPa 0,0 l/m 0,0 km/h NO -3,9 C 0,6 C 0,0 km/h
21.02.2018 20:00 0,6 C 71 % 1014,9 hPa 0,0 l/m 7,1 km/h N-NO -4,0 C -0,1 C 4,0 km/h
21.02.2018 21:00 -0,4 C 73 % 1014,7 hPa 0,0 l/m 0,0 km/h N-NO -4,6 C -0,4 C 0,0 km/h
21.02.2018 22:00 -0,5 C 73 % 1014,0 hPa 0,0 l/m 0,0 km/h N -4,7 C -0,5 C 0,0 km/h
21.02.2018 23:00 -0,8 C 73 % 1013,6 hPa 0,0 l/m 5,2 km/h N -5,0 C -0,8 C 2,9 km/h
22.02.2018 00:00 -1,4 C 74 % 1013,4 hPa 0,0 l/m 1,9 km/h N-NO -5,4 C -1,4 C 1,1 km/h
22.02.2018 01:00 -1,4 C 74 % 1012,9 hPa 0,0 l/m 0,0 km/h N-NO -5,4 C -1,4 C 0,0 km/h
22.02.2018 02:00 -1,7 C 75 % 1012,8 hPa 0,0 l/m 9,7 km/h N-NO -5,5 C -5,1 C 5,4 km/h
22.02.2018 03:00 -2,1 C 75 % 1012,6 hPa 0,0 l/m 0,0 km/h N-NO -5,9 C -2,1 C 0,0 km/h
22.02.2018 04:00 -2,1 C 75 % 1011,9 hPa 0,0 l/m 0,0 km/h N-NO -5,9 C -2,1 C 0,0 km/h
22.02.2018 05:00 -2,2 C 75 % 1011,9 hPa 0,0 l/m 1,9 km/h N-NO -6,0 C -2,2 C 1,1 km/h
22.02.2018 06:00 -2,5 C 74 % 1011,7 hPa 0,0 l/m 0,0 km/h NO -6,5 C -2,5 C 0,0 km/h
22.02.2018 07:00 -2,1 C 74 % 1011,9 hPa 0,0 l/m 2,6 km/h N -6,1 C -2,1 C 1,4 km/h
22.02.2018 08:00 -0,1 C 69 % 1011,8 hPa 0,0 l/m 14,3 km/h NO -5,1 C -6,7 C 7,9 km/h
22.02.2018 09:00 2,2 C 60 % 1011,9 hPa 0,0 l/m 14,9 km/h O-NO -4,7 C -4,3 C 8,3 km/h
22.02.2018 10:00 2,9 C 58 % 1012,0 hPa 0,0 l/m 0,0 km/h N-NO -4,5 C 2,9 C 0,0 km/h
22.02.2018 11:00 0,8 C 63 % 1011,8 hPa 0,0 l/m 24,6 km/h N-NO -5,4 C -10,5 C 13,7 km/h
22.02.2018 12:00 0,9 C 63 % 1011,6 hPa 0,0 l/m 23,3 km/h N-NO -5,3 C -9,9 C 13,0 km/h
22.02.2018 13:00 1,3 C 63 % 1011,2 hPa 0,0 l/m 8,4 km/h NO -5,0 C -0,7 C 4,7 km/h
22.02.2018 14:00 1,4 C 63 % 1011,2 hPa 0,0 l/m 0,0 km/h NO -4,9 C 1,4 C 0,0 km/h
22.02.2018 15:00 1,6 C 62 % 1010,9 hPa 0,0 l/m 5,2 km/h NO -4,9 C 1,6 C 2,9 km/h
22.02.2018 16:00 1,5 C 61 % 1011,2 hPa 0,0 l/m 0,0 km/h N-NO -5,2 C 1,5 C 0,0 km/h
22.02.2018 17:00 1,2 C 61 % 1011,3 hPa 0,0 l/m 9,1 km/h NO -5,5 C -1,4 C 5,0 km/h
22.02.2018 18:00 0,9 C 63 % 1011,6 hPa 0,0 l/m 0,0 km/h N-NO -5,3 C 0,9 C 0,0 km/h
22.02.2018 19:00 0,9 C 62 % 1011,8 hPa 0,0 l/m 0,0 km/h NO -5,5 C 0,9 C 0,0 km/h
22.02.2018 20:00 0,8 C 62 % 1011,8 hPa 0,0 l/m 0,0 km/h N-NO -5,6 C 0,8 C 0,0 km/h
22.02.2018 21:00 0,7 C 63 % 1011,5 hPa 0,0 l/m 0,0 km/h O-SO -5,5 C 0,7 C 0,0 km/h
22.02.2018 22:00 0,6 C 64 % 1011,6 hPa 0,0 l/m 0,0 km/h SO -5,4 C 0,6 C 0,0 km/h
22.02.2018 23:00 0,6 C 65 % 1011,3 hPa 0,0 l/m 0,0 km/h N-NO -5,2 C 0,6 C 0,0 km/h
23.02.2018 00:00 0,4 C 65 % 1011,5 hPa 0,0 l/m 1,3 km/h N-NO -5,4 C 0,4 C 0,7 km/h
23.02.2018 01:00 0,3 C 67 % 1011,3 hPa 0,0 l/m 0,0 km/h N-NO -5,1 C 0,3 C 0,0 km/h
23.02.2018 02:00 0,1 C 68 % 1010,9 hPa 0,0 l/m 0,0 km/h NO -5,1 C 0,1 C 0,0 km/h
23.02.2018 03:00 -0,1 C 70 % 1010,8 hPa 0,0 l/m 0,0 km/h N-NO -4,9 C -0,1 C 0,0 km/h
23.02.2018 04:00 -0,1 C 70 % 1010,6 hPa 0,0 l/m 0,0 km/h N-NO -4,9 C -0,1 C 0,0 km/h
23.02.2018 05:00 -0,4 C 71 % 1010,4 hPa 0,0 l/m 0,0 km/h NO -5,0 C -0,4 C 0,0 km/h
23.02.2018 06:00 -0,5 C 71 % 1010,6 hPa 0,0 l/m 0,0 km/h NO -5,1 C -0,5 C 0,0 km/h
23.02.2018 07:00 -0,5 C 71 % 1010,8 hPa 0,0 l/m 0,0 km/h N-NO -5,1 C -0,5 C 0,0 km/h
23.02.2018 08:00 0,1 C 69 % 1010,9 hPa 0,0 l/m 0,0 km/h N -4,9 C 0,1 C 0,0 km/h
23.02.2018 09:00 0,4 C 68 % 1011,2 hPa 0,0 l/m 24,0 km/h NO -4,8 C -10,8 C 13,3 km/h
23.02.2018 10:00 1,0 C 67 % 1011,5 hPa 0,0 l/m 4,5 km/h N-NO -4,4 C 1,0 C 2,5 km/h
23.02.2018 11:00 1,5 C 64 % 1011,2 hPa 0,0 l/m 0,0 km/h N-NO -4,6 C 1,5 C 0,0 km/h
23.02.2018 12:00 2,4 C 62 % 1011,2 hPa 0,0 l/m 0,0 km/h N-NO -4,1 C 2,4 C 0,0 km/h
23.02.2018 13:00 1,4 C 63 % 1011,1 hPa 0,0 l/m 0,0 km/h N-NO -4,9 C 1,4 C 0,0 km/h
23.02.2018 14:00 1,6 C 64 % 1011,4 hPa 0,0 l/m 20,1 km/h NO -4,5 C -7,6 C 11,2 km/h
23.02.2018 15:00 0,9 C 65 % 1011,2 hPa 0,0 l/m 7,1 km/h O-NO -4,9 C 0,2 C 4,0 km/h
23.02.2018 16:00 0,6 C 66 % 1011,2 hPa 0,0 l/m 0,0 km/h NO -5,0 C 0,6 C 0,0 km/h
23.02.2018 17:00 0,3 C 67 % 1011,6 hPa 0,0 l/m 0,0 km/h NO -5,1 C 0,3 C 0,0 km/h
23.02.2018 18:00 0,2 C 68 % 1011,7 hPa 0,0 l/m 0,0 km/h N-NO -5,0 C 0,2 C 0,0 km/h
23.02.2018 19:00 0,3 C 69 % 1011,6 hPa 0,0 l/m 0,0 km/h NO -4,7 C 0,3 C 0,0 km/h
23.02.2018 20:00 0,4 C 70 % 1011,6 hPa 0,0 l/m 0,0 km/h N -4,4 C 0,4 C 0,0 km/h
Min-Datum _ 22.02.18 21.02.18 23.02.18 - 19.02.18 - 22.02.18 21.02.18 19.02.18
_ Min-Zeit 06:53 14:53 05:53 - 00:53 - 06:53 06:53 00:53
Minimum _ -2,5 C 47 % 1010,4 hPa - 0,0 km/h - -6,5 C -11,4 C 0,0 km/h
Max-Datum _ 21.02.18 19.02.18 19.02.18 19.02.18 21.02.18 - 19.02.18 21.02.18 21.02.18
_ Max-Zeit 15:53 00:53 00:53 00:53 12:53 - 11:53 15:53 12:53
Maximum _ 8,4 C 87 % 1019,5 hPa 0,0 l/m 25,9 km/h
N-NO
- 0,1 C 7,9 C 14,4 km/h
N-NO
Durchschnitt _ 1,0 C 73 % 1013,5 hPa #0,0 l/m 3,1 km/h N-NO -3,5 C -0,1 C 1,7 km/h
www.sexauwetter.de